Time;durP1;ratioP1;P1;durP2;ratioP2;P2;SDS_P1;SDS_P2;PMS_P1;PMS_P2;Temp;Humidity;BMP_temperature;BMP_pressure;BME280_temperature;BME280_humidity;BME280_pressure;Samples;Min_cycle;Max_cycle;Signal;HPM_P1;HPM_P2
2024/02/26 00:00:13;;;;;;;4.97;3.67;;;;;;;6.76;71.19;99241.34;5012369;28;20089;-81
2024/02/26 00:02:40;;;;;;;5.03;3.45;;;;;;;6.74;71.67;99233.63;5005072;28;20485;-81
2024/02/26 00:05:07;;;;;;;4.93;3.50;;;;;;;6.73;71.38;99236.38;4992842;28;20054;-81
2024/02/26 00:07:34;;;;;;;3.92;2.90;;;;;;;6.75;71.41;99234.44;4997841;28;20097;-81
2024/02/26 00:10:02;;;;;;;4.07;3.17;;;;;;;6.73;71.96;99229.31;5003463;28;20093;-81
2024/02/26 00:12:28;;;;;;;4.13;2.63;;;;;;;6.69;71.71;99221.84;5013537;28;20054;-81
2024/02/26 00:14:58;;;;;;;4.75;3.00;;;;;;;6.71;72.12;99225.19;4997449;28;20097;-82
2024/02/26 00:17:25;;;;;;;6.78;2.80;;;;;;;6.67;74.26;99235.16;4990511;28;20491;-81
2024/02/26 00:19:51;;;;;;;4.60;3.05;;;;;;;6.66;71.93;99227.41;5004913;28;20046;-81
2024/02/26 00:22:18;;;;;;;6.05;2.88;;;;;;;6.61;73.27;99227.84;5014452;28;20132;-80
2024/02/26 00:24:45;;;;;;;3.90;2.65;;;;;;;6.65;73.99;99228.38;5001758;28;20108;-81
2024/02/26 00:27:13;;;;;;;4.95;2.92;;;;;;;6.61;73.24;99213.84;5013192;28;20089;-81
2024/02/26 00:29:39;;;;;;;3.22;2.45;;;;;;;6.64;73.14;99203.06;5010815;28;20070;-81
2024/02/26 00:32:06;;;;;;;4.03;2.60;;;;;;;6.62;73.84;99207.66;4998762;28;20424;-80
2024/02/26 00:34:33;;;;;;;3.33;2.53;;;;;;;6.53;74.47;99206.72;5007468;28;20042;-81
2024/02/26 00:36:59;;;;;;;3.78;2.92;;;;;;;6.53;74.38;99197.00;5023211;28;20054;-81
2024/02/26 00:39:26;;;;;;;5.68;2.95;;;;;;;6.56;74.29;99201.13;5024711;28;20061;-81
2024/02/26 00:41:52;;;;;;;5.75;2.83;;;;;;;6.48;75.16;99204.50;5014962;28;20088;-81
2024/02/26 00:44:20;;;;;;;3.83;2.65;;;;;;;6.50;73.99;99199.91;5006905;28;20081;-80
2024/02/26 00:46:50;;;;;;;4.30;2.90;;;;;;;6.52;74.21;99200.63;5009799;28;20093;-81
2024/02/26 00:49:17;;;;;;;4.93;2.70;;;;;;;6.49;74.88;99198.28;5009840;28;20054;-81
2024/02/26 00:51:43;;;;;;;4.28;3.10;;;;;;;6.48;74.79;99206.31;5012477;28;20065;-83
2024/02/26 00:54:10;;;;;;;4.70;3.35;;;;;;;6.48;74.69;99206.31;5014534;28;20077;-81
2024/02/26 00:56:36;;;;;;;4.38;3.40;;;;;;;6.48;75.25;99212.41;5022372;28;20084;-81
2024/02/26 00:59:03;;;;;;;4.68;3.10;;;;;;;6.46;75.38;99216.94;5010486;28;20089;-81
2024/02/26 01:01:31;;;;;;;5.30;3.15;;;;;;;6.47;75.12;99210.72;5014248;28;20109;-81
2024/02/26 01:03:57;;;;;;;4.90;3.10;;;;;;;6.43;76.10;99213.78;5010665;28;20397;-80
2024/02/26 01:06:24;;;;;;;4.90;2.90;;;;;;;6.43;75.57;99221.66;5010609;28;20050;-80
2024/02/26 01:08:51;;;;;;;3.92;2.97;;;;;;;6.46;75.01;99216.94;5021407;28;20125;-80
2024/02/26 01:11:17;;;;;;;3.45;2.67;;;;;;;6.43;75.76;99209.38;5020035;28;20050;-80
2024/02/26 01:13:44;;;;;;;4.25;2.90;;;;;;;6.37;77.79;99202.03;5020756;28;20133;-80
2024/02/26 01:16:11;;;;;;;5.15;3.25;;;;;;;6.32;76.97;99193.75;5021170;28;20053;-80
2024/02/26 01:18:39;;;;;;;4.03;2.88;;;;;;;6.33;77.84;99208.53;5020787;28;20060;-81
2024/02/26 01:21:08;;;;;;;5.22;3.17;;;;;;;6.37;77.75;99206.47;5007924;28;20129;-79
2024/02/26 01:23:35;;;;;;;3.58;2.45;;;;;;;6.31;78.49;99207.88;5022762;28;20050;-79
2024/02/26 01:26:02;;;;;;;3.38;2.67;;;;;;;6.31;78.97;99190.31;5010418;28;20085;-80
2024/02/26 01:28:29;;;;;;;3.63;2.55;;;;;;;6.35;77.89;99201.38;5020426;28;20081;-79
2024/02/26 01:30:55;;;;;;;3.20;2.28;;;;;;;6.29;78.74;99199.28;5007234;28;20054;-79
2024/02/26 01:33:22;;;;;;;4.05;2.60;;;;;;;6.28;78.73;99195.00;5005559;28;20153;-81
2024/02/26 01:35:50;;;;;;;3.22;2.50;;;;;;;6.28;79.62;99197.63;4999487;28;20078;-80
2024/02/26 01:38:17;;;;;;;3.10;2.60;;;;;;;6.23;80.62;99198.06;4999952;28;20054;-80
2024/02/26 01:40:43;;;;;;;4.53;2.35;;;;;;;6.24;81.15;99202.34;5016088;28;20069;-79
2024/02/26 01:43:10;;;;;;;2.90;2.33;;;;;;;6.25;80.54;99190.03;4999090;28;20074;-82
2024/02/26 01:45:38;;;;;;;4.30;2.60;;;;;;;6.28;79.49;99202.88;5008334;28;20141;-80
2024/02/26 01:48:05;;;;;;;6.18;2.83;;;;;;;6.19;81.35;99195.88;4997890;28;20046;-80
2024/02/26 01:50:34;;;;;;;5.05;2.70;;;;;;;6.18;80.88;99194.22;4999302;28;20054;-80
2024/02/26 01:53:02;;;;;;;3.25;2.70;;;;;;;6.13;81.81;99181.50;5000298;28;20106;-80
2024/02/26 01:55:29;;;;;;;3.33;2.70;;;;;;;6.06;82.21;99178.59;4999401;28;20097;-81
2024/02/26 01:57:56;;;;;;;3.15;2.67;;;;;;;6.11;82.61;99188.69;5007925;28;20081;-81
2024/02/26 02:00:24;;;;;;;3.67;2.63;;;;;;;6.06;83.31;99178.59;4999607;28;20077;-82
2024/02/26 02:02:52;;;;;;;4.18;2.72;;;;;;;6.04;83.21;99187.59;4999553;28;20061;-80
2024/02/26 02:05:21;;;;;;;3.22;2.70;;;;;;;6.05;83.10;99190.06;4999522;28;20050;-80
2024/02/26 02:07:48;;;;;;;3.50;2.47;;;;;;;6.02;83.69;99195.59;4991656;28;20436;-81
2024/02/26 02:10:22;;;;;;;3.55;2.80;;;;;;;5.97;83.86;99187.31;5007927;28;20104;-80
2024/02/26 02:12:49;;;;;;;3.13;2.55;;;;;;;5.93;84.24;99185.13;4991795;28;20054;-80
2024/02/26 02:15:16;;;;;;;6.53;3.13;;;;;;;5.91;85.41;99190.50;5000300;28;20074;-80
2024/02/26 02:17:43;;;;;;;2.95;2.42;;;;;;;5.92;84.65;99183.47;5000109;28;20062;-80
2024/02/26 02:20:11;;;;;;;3.97;2.70;;;;;;;5.90;85.14;99183.59;5006575;28;20057;-80
2024/02/26 02:22:40;;;;;;;2.60;2.20;;;;;;;5.92;85.79;99184.28;5008978;28;20102;-80
2024/02/26 02:25:07;;;;;;;4.35;2.50;;;;;;;5.91;85.30;99176.53;4999152;28;20062;-80
2024/02/26 02:27:35;;;;;;;3.28;2.42;;;;;;;5.90;85.84;99186.22;5000268;28;20050;-81
2024/02/26 02:30:02;;;;;;;2.85;2.50;;;;;;;5.94;85.60;99186.78;5006133;28;20062;-81
2024/02/26 02:32:31;;;;;;;3.08;2.42;;;;;;;5.92;85.49;99186.09;5007520;28;20070;-82
2024/02/26 02:34:58;;;;;;;3.63;2.58;;;;;;;5.90;86.85;99183.59;5007670;28;20062;-81
2024/02/26 02:37:24;;;;;;;2.88;2.50;;;;;;;5.93;86.54;99187.75;5000077;28;20054;-79
2024/02/26 02:39:54;;;;;;;3.30;2.40;;;;;;;5.88;86.90;99175.00;5010608;28;20152;-81
2024/02/26 02:42:21;;;;;;;2.88;2.42;;;;;;;5.94;86.12;99176.25;5003740;28;20042;-79
2024/02/26 02:44:48;;;;;;;3.47;2.13;;;;;;;5.92;86.12;99176.41;4991970;28;20531;-80
2024/02/26 02:47:15;;;;;;;3.97;2.50;;;;;;;5.94;85.26;99176.25;4998854;28;20077;-81
2024/02/26 02:49:42;;;;;;;4.50;2.92;;;;;;;5.85;86.84;99170.06;5001020;28;20054;-80
2024/02/26 02:52:09;;;;;;;2.88;2.50;;;;;;;5.89;86.05;99181.91;5009758;28;20058;-81
2024/02/26 02:54:36;;;;;;;3.25;2.28;;;;;;;5.89;86.66;99174.03;5000564;28;20051;-82
2024/02/26 02:57:05;;;;;;;3.55;2.75;;;;;;;5.89;86.90;99181.91;5005026;28;20181;-80
2024/02/26 02:59:31;;;;;;;3.88;2.85;;;;;;;5.88;87.44;99177.63;5004187;28;20058;-82
2024/02/26 03:01:58;;;;;;;4.35;2.58;;;;;;;5.86;87.35;99171.72;5000965;28;20050;-81
2024/02/26 03:04:25;;;;;;;6.03;3.50;;;;;;;5.86;87.25;99182.22;5007680;28;20118;-80
2024/02/26 03:06:51;;;;;;;4.32;3.00;;;;;;;5.87;87.24;99183.84;5026431;28;20050;-81
2024/02/26 03:09:18;;;;;;;6.30;3.10;;;;;;;5.87;87.36;99173.34;5011419;28;20092;-81
2024/02/26 03:11:44;;;;;;;5.45;3.53;;;;;;;5.86;87.71;99182.22;5012496;28;20103;-82
2024/02/26 03:14:12;;;;;;;6.30;3.40;;;;;;;5.90;87.36;99170.47;5020686;28;20046;-82
2024/02/26 03:16:39;;;;;;;5.05;3.30;;;;;;;5.86;87.86;99169.09;5019516;28;20066;-81
2024/02/26 03:19:06;;;;;;;4.32;2.83;;;;;;;5.89;87.17;99175.84;5000874;28;20085;-80
2024/02/26 03:21:32;;;;;;;4.25;2.95;;;;;;;5.93;87.83;99169.38;5009856;28;20244;-81
2024/02/26 03:23:59;;;;;;;4.95;3.25;;;;;;;5.93;87.00;99164.94;5016391;28;20124;-81
2024/02/26 03:26:26;;;;;;;4.95;2.97;;;;;;;5.93;87.48;99174.63;5024353;23;20028;-82
2024/02/26 03:28:52;;;;;;;4.55;2.95;;;;;;;5.91;87.75;99166.03;5023555;28;20046;-82
2024/02/26 03:31:21;;;;;;;3.72;2.80;;;;;;;5.87;88.24;99175.97;5014323;28;20069;-81
2024/02/26 03:33:48;;;;;;;3.65;3.03;;;;;;;5.86;88.60;99165.63;5019113;28;20755;-84
2024/02/26 03:36:14;;;;;;;4.28;2.72;;;;;;;5.85;88.24;99175.31;5022041;28;20326;-82
2024/02/26 03:38:41;;;;;;;3.10;2.50;;;;;;;5.82;88.46;99178.19;5019557;28;20070;-83
2024/02/26 03:41:08;;;;;;;3.95;2.40;;;;;;;5.84;89.67;99173.63;5020587;28;20082;-80
2024/02/26 03:43:35;;;;;;;6.32;2.67;;;;;;;5.92;88.87;99173.78;5020566;28;20056;-83
2024/02/26 03:46:02;;;;;;;3.60;2.72;;;;;;;5.91;88.85;99176.53;5017694;28;20121;-83
2024/02/26 03:48:30;;;;;;;4.18;2.40;;;;;;;5.94;87.18;99171.88;5019477;28;20058;-82
2024/02/26 03:50:56;;;;;;;3.55;2.35;;;;;;;5.97;87.80;99182.06;5019458;28;20571;-83
2024/02/26 03:53:23;;;;;;;4.70;2.72;;;;;;;5.94;87.64;99173.63;5018660;28;20456;-83
2024/02/26 03:55:51;;;;;;;3.97;2.13;;;;;;;5.91;88.59;99176.53;5017127;28;20118;-83
2024/02/26 03:58:18;;;;;;;2.95;2.65;;;;;;;5.89;88.98;99175.84;5023451;28;20093;-81
2024/02/26 04:00:47;;;;;;;2.92;2.30;;;;;;;5.87;89.81;99183.03;5027623;28;20050;-83
2024/02/26 04:03:13;;;;;;;3.40;2.42;;;;;;;5.89;89.19;99181.06;5025073;28;20323;-83
2024/02/26 04:05:41;;;;;;;2.47;2.28;;;;;;;5.87;89.40;99183.03;5026615;28;20137;-83
2024/02/26 04:08:08;;;;;;;4.82;2.60;;;;;;;5.84;89.39;99186.75;5021848;28;20057;-83
2024/02/26 04:10:38;;;;;;;6.25;2.30;;;;;;;5.83;89.97;99187.72;5018118;28;20073;-83
2024/02/26 04:13:05;;;;;;;2.97;2.55;;;;;;;5.82;89.53;99189.53;5017890;28;20117;-83
2024/02/26 04:15:31;;;;;;;3.88;2.70;;;;;;;5.79;90.68;99191.59;5017180;28;20083;-84
2024/02/26 04:17:58;;;;;;;3.40;2.42;;;;;;;5.80;90.27;99206.38;5016989;28;20435;-84
2024/02/26 04:20:24;;;;;;;4.20;2.90;;;;;;;5.75;91.04;99203.34;5017106;28;20082;-84
2024/02/26 04:22:52;;;;;;;4.75;2.60;;;;;;;5.77;91.01;99206.66;5016321;28;20137;-81
2024/02/26 04:25:19;;;;;;;3.38;2.70;;;;;;;5.77;90.99;99207.50;5016411;28;20050;-83
2024/02/26 04:27:46;;;;;;;3.97;2.65;;;;;;;5.73;91.28;99205.28;5020022;28;20125;-84
2024/02/26 04:30:13;;;;;;;4.07;3.08;;;;;;;5.70;92.11;99216.06;5019830;28;20082;-82
2024/02/26 04:32:39;;;;;;;3.00;2.70;;;;;;;5.72;91.48;99219.38;5019342;28;20093;-84
2024/02/26 04:35:07;;;;;;;3.42;2.85;;;;;;;5.70;92.60;99231.78;5018529;28;20049;-83
2024/02/26 04:37:33;;;;;;;4.35;3.10;;;;;;;5.65;93.43;99223.50;5022063;28;20481;-85
2024/02/26 04:40:02;;;;;;;4.20;3.10;;;;;;;5.64;93.75;99224.50;5023750;28;20089;-83
2024/02/26 04:42:29;;;;;;;4.22;2.78;;;;;;;5.66;92.90;99219.91;5023210;28;20053;-83
2024/02/26 04:44:56;;;;;;;3.45;2.88;;;;;;;5.63;92.49;99215.78;5022636;28;20077;-80
2024/02/26 04:47:23;;;;;;;3.58;2.95;;;;;;;5.62;93.38;99215.91;5022620;28;20137;-84
2024/02/26 04:49:50;;;;;;;4.45;3.22;;;;;;;5.60;94.09;99220.47;5014539;28;20057;-84
2024/02/26 04:52:17;;;;;;;5.72;3.20;;;;;;;5.60;93.66;99225.72;5022429;28;20081;-85
2024/02/26 04:54:43;;;;;;;5.38;3.10;;;;;;;5.58;94.06;99218.81;5021996;28;20058;-85
2024/02/26 04:57:11;;;;;;;4.32;3.20;;;;;;;5.58;93.74;99223.22;5022409;28;20129;-85
2024/02/26 04:59:38;;;;;;;6.72;2.83;;;;;;;5.56;94.16;99222.53;5023387;28;20058;-84
2024/02/26 05:02:04;;;;;;;3.65;3.00;;;;;;;5.57;93.65;99216.31;5023139;28;20088;-84
2024/02/26 05:04:31;;;;;;;6.38;2.92;;;;;;;5.60;94.26;99212.59;5024676;28;20080;-83
2024/02/26 05:06:58;;;;;;;5.13;3.30;;;;;;;5.60;93.87;99223.09;5028462;28;20081;-82
2024/02/26 05:09:24;;;;;;;4.18;2.80;;;;;;;5.57;93.52;99219.75;5030922;28;20106;-84
2024/02/26 05:11:51;;;;;;;4.07;3.20;;;;;;;5.56;93.72;99226.00;5031030;28;20057;-83
2024/02/26 05:14:19;;;;;;;2.92;2.67;;;;;;;5.55;94.35;99224.34;5026016;28;20145;-82
2024/02/26 05:16:47;;;;;;;3.80;3.15;;;;;;;5.54;94.24;99222.69;5023136;28;20049;-82
2024/02/26 05:19:14;;;;;;;7.05;3.35;;;;;;;5.57;93.74;99219.75;5023091;28;20054;-83
2024/02/26 05:21:44;;;;;;;4.43;3.20;;;;;;;5.56;94.19;99219.91;5022663;28;20113;-82
2024/02/26 05:24:11;;;;;;;3.80;3.20;;;;;;;5.56;93.96;99222.53;5023476;28;20388;-82
2024/02/26 05:26:38;;;;;;;4.15;3.30;;;;;;;5.55;94.32;99218.25;5021892;28;20113;-81
2024/02/26 05:29:04;;;;;;;4.53;3.33;;;;;;;5.54;94.23;99220.06;5021912;28;20471;-81
2024/02/26 05:31:32;;;;;;;7.43;3.45;;;;;;;5.53;94.13;99231.50;5023342;28;20109;-84
2024/02/26 05:33:59;;;;;;;5.63;3.05;;;;;;;5.54;94.03;99238.44;5024923;28;20065;-80
2024/02/26 05:36:33;;;;;;;7.35;3.25;;;;;;;5.51;94.78;99237.88;5022898;28;20077;-82
2024/02/26 05:38:59;;;;;;;3.63;3.15;;;;;;;5.52;94.32;99237.72;5021507;28;20049;-82
2024/02/26 05:41:26;;;;;;;5.50;3.78;;;;;;;5.52;94.34;99239.50;5021628;28;20054;-82
2024/02/26 05:43:53;;;;;;;4.30;3.20;;;;;;;5.48;95.08;99238.94;5022362;28;20455;-82
2024/02/26 05:46:20;;;;;;;5.20;3.30;;;;;;;5.48;94.89;99238.94;5021808;28;20079;-82
2024/02/26 05:48:52;;;;;;;5.40;3.50;;;;;;;5.51;94.20;99245.75;5021856;28;20515;-82
2024/02/26 05:51:19;;;;;;;5.22;3.45;;;;;;;5.49;94.22;99245.88;5020799;28;20073;-82
2024/02/26 05:53:46;;;;;;;5.53;3.70;;;;;;;5.48;95.49;99248.63;5021578;28;20053;-81
2024/02/26 05:56:13;;;;;;;4.90;3.65;;;;;;;5.48;94.72;99249.44;5022644;28;20113;-81
2024/02/26 05:58:39;;;;;;;5.43;4.25;;;;;;;5.45;95.42;99255.00;5023338;28;20134;-80
2024/02/26 06:01:06;;;;;;;6.20;3.53;;;;;;;5.47;95.30;99247.78;5023850;28;20100;-80
2024/02/26 06:03:33;;;;;;;5.47;3.70;;;;;;;5.45;95.32;99255.00;5024906;28;20082;-81
2024/02/26 06:06:01;;;;;;;7.88;3.90;;;;;;;5.50;94.74;99252.78;5029416;28;20373;-82
2024/02/26 06:08:29;;;;;;;6.82;4.20;;;;;;;5.47;95.10;99260.91;5027305;28;20054;-81
2024/02/26 06:10:56;;;;;;;8.38;4.47;;;;;;;5.46;96.26;99259.25;5028207;28;20054;-83
2024/02/26 06:13:22;;;;;;;8.60;4.80;;;;;;;5.48;95.78;99264.38;5023804;28;20538;-83
2024/02/26 06:15:52;;;;;;;7.68;4.63;;;;;;;5.48;95.54;99261.75;5023965;28;20479;-82
2024/02/26 06:18:18;;;;;;;7.90;4.68;;;;;;;5.48;95.65;99275.69;5030667;28;20126;-81
2024/02/26 06:20:46;;;;;;;7.22;4.88;;;;;;;5.42;96.69;99272.78;5029420;28;20519;-82
2024/02/26 06:23:14;;;;;;;6.20;4.35;;;;;;;5.43;96.84;99277.88;5023546;28;20059;-82
2024/02/26 06:25:41;;;;;;;8.45;4.72;;;;;;;5.42;97.49;99281.47;5024424;28;20070;-82
2024/02/26 06:28:07;;;;;;;7.93;4.68;;;;;;;5.42;97.47;99283.28;5022672;28;20100;-81
2024/02/26 06:30:34;;;;;;;8.98;4.75;;;;;;;5.43;96.85;99279.69;5021808;28;20050;-82
2024/02/26 06:33:04;;;;;;;6.68;5.05;;;;;;;5.41;96.94;99282.44;5023179;28;20054;-81
2024/02/26 06:35:31;;;;;;;7.20;5.00;;;;;;;5.42;96.93;99291.97;5023893;28;20070;-82
2024/02/26 06:37:57;;;;;;;6.13;4.72;;;;;;;5.43;96.64;99293.63;5022014;28;20088;-81
2024/02/26 06:40:26;;;;;;;11.90;5.78;;;;;;;5.42;96.28;99302.47;5025364;28;20058;-81
2024/02/26 06:42:52;;;;;;;7.78;4.57;;;;;;;5.38;97.15;99306.31;5023323;28;20046;-80
2024/02/26 06:45:20;;;;;;;7.60;4.70;;;;;;;5.39;97.55;99307.97;5022526;28;20092;-80
2024/02/26 06:47:49;;;;;;;7.85;4.60;;;;;;;5.40;97.96;99309.63;5021976;28;20058;-81
2024/02/26 06:50:16;;;;;;;6.82;4.65;;;;;;;5.40;97.84;99316.66;5025339;28;20053;-82
2024/02/26 06:52:45;;;;;;;6.78;4.63;;;;;;;5.41;97.82;99316.56;5024611;28;20050;-83
2024/02/26 06:55:11;;;;;;;6.50;4.47;;;;;;;5.39;98.47;99317.66;5022559;28;20042;-81
2024/02/26 06:57:40;;;;;;;6.57;4.78;;;;;;;5.41;97.46;99321.81;5021093;28;20077;-82
2024/02/26 07:00:07;;;;;;;7.32;4.65;;;;;;;5.38;98.18;99324.69;5020467;28;20135;-81
2024/02/26 07:02:34;;;;;;;6.95;4.82;;;;;;;5.37;98.94;99323.03;5025426;28;20038;-83
2024/02/26 07:08:22;;;;;;;7.85;4.82;;;;;;;5.36;98.58;99337.13;5028155;28;20068;-81
2024/02/26 07:10:49;;;;;;;7.93;4.93;;;;;;;5.33;99.35;99325.09;5019263;28;20073;-80
2024/02/26 07:13:16;;;;;;;6.07;4.63;;;;;;;5.35;99.11;99337.22;5017033;28;20045;-80
2024/02/26 07:15:43;;;;;;;6.50;5.18;;;;;;;5.35;99.00;99337.22;5021613;28;20049;-81
2024/02/26 07:18:10;;;;;;;6.85;5.18;;;;;;;5.36;99.36;99341.50;5013150;28;20092;-82
2024/02/26 07:20:37;;;;;;;6.55;5.00;;;;;;;5.35;99.73;99334.59;5021542;28;20053;-81
2024/02/26 07:23:04;;;;;;;7.78;5.28;;;;;;;5.38;98.68;99342.22;5019641;28;20081;-80
2024/02/26 07:25:31;;;;;;;8.70;4.75;;;;;;;5.37;99.02;99345.81;5013113;28;20092;-80
2024/02/26 07:27:57;;;;;;;9.05;4.72;;;;;;;5.39;98.37;99354.38;5022040;28;20088;-81
2024/02/26 07:30:25;;;;;;;7.43;5.03;;;;;;;5.40;97.84;99348.97;5021835;28;20084;-81
2024/02/26 07:32:52;;;;;;;6.95;5.00;;;;;;;5.43;98.79;99346.09;5022771;28;20089;-83
2024/02/26 07:35:19;;;;;;;6.65;4.78;;;;;;;5.40;98.05;99358.66;5020252;28;20042;-81
2024/02/26 07:37:49;;;;;;;6.00;4.53;;;;;;;5.40;97.73;99356.84;5016048;28;20085;-80
2024/02/26 07:40:16;;;;;;;7.47;4.40;;;;;;;5.40;97.36;99351.59;5014795;28;20065;-80
2024/02/26 07:42:42;;;;;;;8.65;4.90;;;;;;;5.38;98.11;99358.78;5020812;28;20499;-81
2024/02/26 07:45:10;;;;;;;5.65;4.65;;;;;;;5.41;97.71;99352.47;5013068;28;20050;-81
2024/02/26 07:47:40;;;;;;;7.38;5.28;;;;;;;5.42;97.05;99359.38;5012876;28;20046;-81
2024/02/26 07:50:08;;;;;;;6.15;4.68;;;;;;;5.43;98.04;99367.09;5019643;28;20046;-83
2024/02/26 07:52:35;;;;;;;8.98;5.05;;;;;;;5.65;96.63;99365.22;5018674;28;20057;-84
2024/02/26 07:55:02;;;;;;;6.97;5.40;;;;;;;5.61;97.05;99369.91;5013624;28;20048;-82
2024/02/26 07:57:28;;;;;;;9.38;5.55;;;;;;;5.58;96.73;99363.16;5021137;28;20112;-82
2024/02/26 07:59:55;;;;;;;7.78;5.50;;;;;;;5.53;98.06;99373.19;5019425;28;20073;-80
2024/02/26 08:02:22;;;;;;;7.78;5.63;;;;;;;5.51;97.52;99374.31;5015905;28;20053;-80
2024/02/26 08:04:50;;;;;;;7.38;5.38;;;;;;;5.45;97.05;99373.06;5020704;28;20081;-79
2024/02/26 08:07:17;;;;;;;7.45;5.35;;;;;;;5.47;97.25;99386.03;5016683;28;20464;-81
2024/02/26 08:09:44;;;;;;;8.10;5.82;;;;;;;5.46;97.23;99382.56;5021559;28;20096;-78
2024/02/26 08:12:11;;;;;;;7.95;6.00;;;;;;;5.46;97.85;99379.94;5020547;28;20054;-79
2024/02/26 08:14:37;;;;;;;8.02;5.78;;;;;;;5.50;97.77;99383.16;5026742;28;20053;-81
2024/02/26 08:17:04;;;;;;;9.90;6.00;;;;;;;5.48;97.73;99396.38;5021887;28;20050;-81
2024/02/26 08:19:31;;;;;;;7.63;6.20;;;;;;;5.50;97.05;99393.66;5019496;28;20050;-80
2024/02/26 08:21:59;;;;;;;9.15;6.07;;;;;;;5.48;96.89;99396.38;5019547;28;20081;-79
2024/02/26 08:24:26;;;;;;;9.05;6.00;;;;;;;5.48;96.53;99404.25;5011614;28;20070;-80
2024/02/26 08:26:53;;;;;;;9.52;6.30;;;;;;;5.51;96.14;99405.78;5019020;28;20054;-79
2024/02/26 08:29:19;;;;;;;8.35;5.70;;;;;;;5.51;96.60;99393.50;5019318;28;20504;-79
2024/02/26 08:31:46;;;;;;;8.52;6.20;;;;;;;5.50;97.42;99404.97;5019622;28;20057;-79
2024/02/26 08:34:13;;;;;;;8.00;5.82;;;;;;;5.52;97.00;99410.91;5018998;28;20110;-79
2024/02/26 08:36:39;;;;;;;8.60;6.30;;;;;;;5.51;96.44;99413.66;5019692;28;20082;-80
2024/02/26 08:39:08;;;;;;;7.65;5.65;;;;;;;5.50;97.04;99431.22;5019189;28;20116;-80
2024/02/26 08:41:35;;;;;;;8.75;5.90;;;;;;;5.52;96.74;99428.44;5017513;28;20084;-80
2024/02/26 08:44:02;;;;;;;8.95;6.25;;;;;;;5.49;96.94;99423.44;5017255;28;20046;-80
2024/02/26 08:46:29;;;;;;;9.68;5.50;;;;;;;5.51;96.86;99424.16;5017551;28;20409;-80
2024/02/26 08:48:55;;;;;;;7.15;5.25;;;;;;;5.51;98.17;99419.75;5018740;28;20420;-79
2024/02/26 08:51:22;;;;;;;7.38;5.18;;;;;;;5.49;97.19;99419.06;5018189;28;20046;-80
2024/02/26 08:53:49;;;;;;;10.00;5.03;;;;;;;5.50;98.29;99430.38;5019089;28;20439;-80
2024/02/26 08:56:18;;;;;;;11.07;5.55;;;;;;;5.50;97.49;99431.22;5018215;28;20050;-80
2024/02/26 08:58:46;;;;;;;8.70;6.10;;;;;;;5.50;97.67;99431.22;5017297;28;20053;-80
2024/02/26 09:01:13;;;;;;;7.93;5.53;;;;;;;5.49;97.72;99440.03;5018528;28;20061;-80
2024/02/26 09:03:40;;;;;;;9.88;5.68;;;;;;;5.50;97.28;99438.25;5018246;28;20050;-80
2024/02/26 09:06:09;;;;;;;10.30;6.00;;;;;;;5.54;96.93;99448.34;5018673;28;20078;-81
2024/02/26 09:08:36;;;;;;;7.68;4.95;;;;;;;5.51;97.32;99450.41;5018358;28;20430;-80
2024/02/26 09:11:04;;;;;;;7.07;5.13;;;;;;;5.51;97.66;99443.34;5018063;28;20057;-79
2024/02/26 09:13:32;;;;;;;7.43;4.65;;;;;;;5.52;97.59;99455.50;5023462;28;20105;-79
2024/02/26 09:15:59;;;;;;;6.32;4.75;;;;;;;5.52;98.84;99450.25;5027172;28;20073;-79
2024/02/26 09:18:26;;;;;;;8.07;4.80;;;;;;;5.52;97.60;99466.00;5028482;28;20042;-79
2024/02/26 09:20:52;;;;;;;6.72;5.03;;;;;;;5.55;97.48;99464.94;5021977;28;20086;-79
2024/02/26 09:23:19;;;;;;;6.25;4.85;;;;;;;5.57;97.49;99468.22;5020659;28;20077;-80
2024/02/26 09:25:46;;;;;;;7.80;4.75;;;;;;;5.63;97.40;99472.16;5021277;28;20507;-78
2024/02/26 09:28:12;;;;;;;6.07;4.43;;;;;;;5.62;96.42;99468.66;5018430;28;20077;-80
2024/02/26 09:30:40;;;;;;;6.28;4.50;;;;;;;5.59;96.12;99487.31;5019851;28;20522;-78
2024/02/26 09:33:07;;;;;;;5.60;4.28;;;;;;;5.58;96.42;99483.88;5018811;28;20093;-79
2024/02/26 09:35:34;;;;;;;7.10;4.35;;;;;;;5.57;96.82;99490.06;5020421;28;20073;-79
2024/02/26 09:38:01;;;;;;;7.55;5.25;;;;;;;5.59;96.81;99487.31;5023219;28;20061;-79
2024/02/26 09:40:28;;;;;;;6.15;4.63;;;;;;;5.61;97.20;99493.25;5023668;28;20057;-80
2024/02/26 09:43:00;;;;;;;6.53;4.63;;;;;;;5.60;97.50;99496.03;5023795;28;20054;-78
2024/02/26 09:45:29;;;;;;;8.57;5.53;;;;;;;5.62;97.08;99501.97;5022906;28;20122;-80
2024/02/26 09:47:57;;;;;;;7.47;5.47;;;;;;;5.60;97.27;99502.09;5021127;28;20050;-77
2024/02/26 09:50:24;;;;;;;6.78;5.07;;;;;;;5.61;97.01;99501.13;5020849;28;20050;-78
2024/02/26 09:52:52;;;;;;;7.93;4.72;;;;;;;5.67;97.29;99515.53;5013040;28;20142;-79
2024/02/26 09:55:19;;;;;;;7.05;5.05;;;;;;;5.66;97.16;99513.88;5019760;28;20137;-79
2024/02/26 09:57:47;;;;;;;8.50;5.10;;;;;;;5.68;96.84;99514.56;5019314;28;20077;-78
2024/02/26 10:00:19;;;;;;;9.50;4.88;;;;;;;5.72;96.21;99518.59;5019549;28;20049;-80
2024/02/26 10:02:47;;;;;;;6.70;5.13;;;;;;;5.69;97.35;99513.63;5019477;28;20065;-80
2024/02/26 10:05:17;;;;;;;7.80;5.57;;;;;;;5.69;97.06;99519.69;5020028;28;20519;-78
2024/02/26 10:07:45;;;;;;;8.10;5.03;;;;;;;5.70;97.05;99516.09;5019901;28;20049;-78
2024/02/26 10:10:12;;;;;;;8.18;5.00;;;;;;;5.75;95.56;99520.94;5019733;28;20045;-79
2024/02/26 10:12:39;;;;;;;6.63;5.13;;;;;;;5.70;96.08;99525.75;5020283;28;20081;-78
2024/02/26 10:15:06;;;;;;;6.05;4.72;;;;;;;5.69;96.49;99527.56;5023541;28;20050;-79
2024/02/26 10:17:33;;;;;;;8.70;5.50;;;;;;;5.68;97.23;99539.03;5024987;28;20050;-80
2024/02/26 10:20:13;;;;;;;9.60;5.88;;;;;;;5.71;96.44;99540.53;5025188;28;20077;-79
2024/02/26 10:22:42;;;;;;;6.20;4.80;;;;;;;5.75;96.62;99534.91;5021356;28;20100;-80
2024/02/26 10:25:09;;;;;;;6.03;4.57;;;;;;;5.78;95.89;99536.44;5021410;28;20137;-80
2024/02/26 10:27:41;;;;;;;7.82;4.90;;;;;;;5.85;96.68;99542.84;5020711;28;20082;-80
2024/02/26 10:30:17;;;;;;;4.90;3.73;;;;;;;5.83;94.32;99537.72;5022318;28;20467;-78
2024/02/26 10:32:45;;;;;;;7.40;4.82;;;;;;;5.86;94.58;99544.50;5020437;28;20049;-79
2024/02/26 10:35:12;;;;;;;7.78;4.82;;;;;;;5.93;96.21;99543.03;5020847;28;20058;-80
2024/02/26 10:37:38;;;;;;;7.13;5.13;;;;;;;5.98;95.05;99542.66;5020511;28;20069;-80
2024/02/26 10:40:10;;;;;;;7.13;5.25;;;;;;;6.11;95.25;99553.75;5016939;28;20050;-79
2024/02/26 10:42:37;;;;;;;7.30;5.10;;;;;;;6.19;95.16;99547.84;5017785;28;20104;-79
2024/02/26 10:45:05;;;;;;;9.02;5.78;;;;;;;6.18;94.38;99552.28;5018583;28;20073;-79
2024/02/26 10:47:33;;;;;;;9.30;5.90;;;;;;;6.23;94.85;99557.13;5018003;28;20077;-79
2024/02/26 10:50:00;;;;;;;11.00;6.80;;;;;;;6.26;94.46;99554.25;5019580;28;20054;-78
2024/02/26 10:52:28;;;;;;;10.02;6.97;;;;;;;6.38;95.49;99563.66;5021393;28;20049;-78
2024/02/26 10:54:57;;;;;;;11.30;7.78;;;;;;;6.45;94.76;99559.56;5021549;28;20078;-79
2024/02/26 10:57:26;;;;;;;9.15;6.50;;;;;;;6.49;93.64;99562.75;5019233;28;20073;-79
2024/02/26 10:59:54;;;;;;;10.63;5.72;;;;;;;6.58;92.69;99575.09;5019780;28;20319;-79
2024/02/26 11:02:22;;;;;;;8.13;5.88;;;;;;;6.48;93.08;99567.19;5021137;28;20259;-79
2024/02/26 11:04:49;;;;;;;6.93;4.95;;;;;;;6.54;93.27;99569.25;5021732;28;20078;-80
2024/02/26 11:07:18;;;;;;;7.43;5.18;;;;;;;6.54;92.33;99569.25;5021061;28;20050;-79
2024/02/26 11:09:51;;;;;;;7.20;5.22;;;;;;;6.46;92.80;99576.16;5020710;28;20099;-79
2024/02/26 11:12:19;;;;;;;6.60;4.97;;;;;;;6.51;93.33;99585.28;5020516;28;20054;-80
2024/02/26 11:14:48;;;;;;;9.85;5.43;;;;;;;6.54;92.43;99578.94;5020600;28;20116;-78
2024/02/26 11:17:17;;;;;;;7.68;5.10;;;;;;;6.54;91.95;99587.66;5020334;28;20072;-81
2024/02/26 11:19:45;;;;;;;7.85;5.25;;;;;;;6.62;92.61;99587.00;5021647;28;20122;-79
2024/02/26 11:22:12;;;;;;;8.00;5.78;;;;;;;6.63;91.88;99590.44;5023115;28;20104;-80
2024/02/26 11:24:41;;;;;;;8.07;5.05;;;;;;;6.69;91.34;99587.28;5026733;28;20053;-80
2024/02/26 11:27:10;;;;;;;7.13;4.85;;;;;;;6.68;91.46;99591.69;5021559;28;20046;-80
2024/02/26 11:29:41;;;;;;;7.55;5.05;;;;;;;6.62;90.80;99592.25;5018930;28;20054;-80
2024/02/26 11:32:10;;;;;;;7.45;5.45;;;;;;;6.65;91.07;99591.13;5019814;28;20084;-81
2024/02/26 11:34:37;;;;;;;7.05;4.75;;;;;;;6.57;91.05;99600.53;5018706;28;20106;-80
2024/02/26 11:37:12;;;;;;;6.35;4.82;;;;;;;6.64;91.49;99597.38;5017200;28;20125;-81
2024/02/26 11:39:41;;;;;;;7.78;5.20;;;;;;;6.57;91.47;99600.53;5018754;28;20080;-78
2024/02/26 11:42:08;;;;;;;7.40;4.90;;;;;;;6.57;91.64;99599.72;5018129;28;20077;-80
2024/02/26 11:44:37;;;;;;;7.47;5.25;;;;;;;6.57;91.03;99595.28;5018205;28;20042;-80